»·PEaware :: ASA473 KBOI-KLAS

ASA473 :: KBOI-KLAS

FLIGHT INFORMATION

Flight Status: Arrived
Operator:
Alaska Airlines
More flights by this operator :: More flights under this callsign
Pilot: Jim T. (555)
Aircraft: MCDONNELL-DOUGLAS MD-88
(MD88)
More flights by this aircraft type
Origin: KBOI Boise Air Terminal/Gowen
United States
Destination: KLAS McCarran Intl
United States
More flights between these airports :: More routes between these airports
Route: +BOI ROARR LYONS CRITO WINEN MPIRE SITEE3
File this flight plan on PilotEdge
Remarks: PBN / A1B2 DOF / 190202 REG / N888SB EET / KZLA0103 OPR / ASA PER / C RMK / TCAS SIMBRIEF
Altitude:
(Current/Filed)
33,000ft
Speed:
(Current/Filed)
440kts
Departed: 02-Feb-19 01:02 PM
Arrived: 02-Feb-19 02:33 PM
Distance/Time
Traveled:
452nm/1:31
Distance/Time
To Go:
Arrived

Flight Plot

Page will automatically refresh every two minutes.

Flight plan parsing failed; only flown route is shown


Map Options




Map Legend


Flown Route
Filed Route
Departure Airport
Arrival Airport
Navaid (VOR, NDB)
Fix

Horizontal Profiles

Position Reports

Time Latitude Longitude Heading Altitude Ground
Speed
02-Feb-19 12:17 43.567664 -116.218577 217 2849ft 0kts
02-Feb-19 12:18 43.567664 -116.218577 217 2849ft 0kts
02-Feb-19 12:19 43.567664 -116.218577 217 2849ft 0kts
02-Feb-19 12:20 43.567664 -116.218577 217 2849ft 0kts
02-Feb-19 12:21 43.567664 -116.218577 217 2849ft 0kts
02-Feb-19 12:22 43.567664 -116.218577 217 2849ft 0kts
02-Feb-19 12:23 43.567664 -116.218577 217 2849ft 0kts
02-Feb-19 12:24 43.567664 -116.218577 217 2849ft 0kts
02-Feb-19 12:25 43.567664 -116.218577 217 2849ft 0kts
02-Feb-19 12:26 43.567664 -116.218577 217 2849ft 0kts
02-Feb-19 12:27 43.567664 -116.218577 217 2849ft 0kts
02-Feb-19 12:28 43.567664 -116.218577 217 2849ft 0kts
02-Feb-19 12:29 43.567664 -116.218577 217 2849ft 0kts
02-Feb-19 12:30 43.567664 -116.218577 217 2849ft 0kts
02-Feb-19 12:31 43.567664 -116.218577 217 2849ft 0kts
02-Feb-19 12:32 43.567664 -116.218577 217 2849ft 0kts
02-Feb-19 12:33 43.567664 -116.218577 217 2849ft 0kts
02-Feb-19 12:34 43.567664 -116.218577 217 2849ft 0kts
02-Feb-19 12:35 43.567664 -116.218577 217 2849ft 0kts
02-Feb-19 12:36 43.567664 -116.218577 217 2849ft 0kts
02-Feb-19 12:37 43.567664 -116.218577 217 2849ft 0kts
02-Feb-19 12:38 43.567664 -116.218577 217 2849ft 0kts
02-Feb-19 12:39 43.567664 -116.218577 217 2849ft 0kts
02-Feb-19 12:40 43.567664 -116.218577 217 2849ft 0kts
02-Feb-19 12:41 43.567664 -116.218577 217 2849ft 0kts
02-Feb-19 12:42 43.567664 -116.218577 217 2849ft 0kts
02-Feb-19 12:43 43.567664 -116.218577 217 2849ft 0kts
02-Feb-19 12:44 43.567690 -116.218550 218 2849ft 2kts
02-Feb-19 12:45 43.568162 -116.218300 142 2849ft 2kts
02-Feb-19 12:46 43.568233 -116.218408 119 2849ft 0kts
02-Feb-19 12:47 43.568233 -116.218408 119 2849ft 0kts
02-Feb-19 12:48 43.568233 -116.218408 119 2849ft 0kts
02-Feb-19 12:49 43.567792 -116.217676 154 2849ft 7kts
02-Feb-19 12:50 43.567220 -116.217504 172 2849ft 0kts
02-Feb-19 12:51 43.566099 -116.217370 176 2849ft 0kts
02-Feb-19 12:52 43.565104 -116.217404 223 2849ft 9kts
02-Feb-19 12:53 43.567282 -116.224759 296 2849ft 23kts
02-Feb-19 12:54 43.568961 -116.229625 295 2849ft 8kts
02-Feb-19 12:55 43.569985 -116.232743 293 2849ft 6kts
02-Feb-19 12:56 43.570975 -116.235891 262 2849ft 5kts
02-Feb-19 12:57 43.570958 -116.235978 251 2849ft 0kts
02-Feb-19 12:58 43.570958 -116.235978 251 2849ft 0kts
02-Feb-19 12:59 43.570958 -116.235978 251 2849ft 0kts
02-Feb-19 13:01 43.570520 -116.236468 197 2849ft 10kts
02-Feb-19 13:02 43.565879 -116.224312 116 2849ft 106kts
02-Feb-19 13:03 43.548759 -116.173660 111 3355ft 160kts
02-Feb-19 13:04 43.531290 -116.112108 109 4637ft 183kts
02-Feb-19 13:05 43.511627 -116.044900 111 6225ft 196kts
02-Feb-19 13:06 43.490104 -115.972567 111 8003ft 205kts
02-Feb-19 13:07 43.459934 -115.892324 116 9018ft 267kts
02-Feb-19 13:08 43.425918 -115.791531 115 10496ft 319kts
02-Feb-19 13:09 43.387786 -115.672610 116 12463ft 350kts
02-Feb-19 13:10 43.348333 -115.548073 116 14526ft 367kts
02-Feb-19 13:11 43.306480 -115.415527 117 16432ft 380kts
02-Feb-19 13:12 43.242146 -115.302395 144 18094ft 378kts
02-Feb-19 13:13 43.163475 -115.203224 142 19653ft 388kts
02-Feb-19 13:14 43.084175 -115.101319 142 21067ft 395kts
02-Feb-19 13:15 43.002902 -114.996648 142 22372ft 402kts
02-Feb-19 13:16 42.920908 -114.890914 142 23555ft 408kts
02-Feb-19 13:17 42.839729 -114.786109 142 24647ft 414kts
02-Feb-19 13:18 42.746816 -114.700446 174 25661ft 395kts
02-Feb-19 13:18 42.656705 -114.697622 183 26472ft 391kts
02-Feb-19 13:20 42.528337 -114.692716 182 27497ft 396kts
02-Feb-19 13:21 42.417560 -114.687851 182 28221ft 399kts
02-Feb-19 13:21 42.324902 -114.683764 182 28757ft 401kts
02-Feb-19 13:22 42.212725 -114.678813 182 29304ft 404kts
02-Feb-19 13:23 42.100449 -114.673856 182 29839ft 403kts
02-Feb-19 13:24 41.988335 -114.668908 182 30331ft 402kts
02-Feb-19 13:25 41.877011 -114.663992 182 30767ft 401kts
02-Feb-19 13:26 41.764634 -114.659030 182 30774ft 402kts
02-Feb-19 13:27 41.653190 -114.654111 182 30775ft 400kts
02-Feb-19 13:28 41.541661 -114.649188 182 30774ft 400kts
02-Feb-19 13:29 41.430358 -114.644279 181 30855ft 400kts
02-Feb-19 13:30 41.319213 -114.639364 181 30853ft 399kts
02-Feb-19 13:31 41.208139 -114.634459 181 30852ft 400kts
02-Feb-19 13:32 41.096499 -114.629531 181 30849ft 401kts
02-Feb-19 13:33 40.985124 -114.624607 181 30849ft 401kts
02-Feb-19 13:34 40.875118 -114.619750 181 30853ft 402kts
02-Feb-19 13:35 40.762679 -114.614787 181 30850ft 403kts
02-Feb-19 13:36 40.650522 -114.609830 181 30849ft 404kts
02-Feb-19 13:37 40.537933 -114.604853 181 30844ft 405kts
02-Feb-19 13:38 40.424848 -114.599856 181 30845ft 405kts
02-Feb-19 13:39 40.312003 -114.594871 181 30845ft 406kts
02-Feb-19 13:40 40.199083 -114.589880 181 30843ft 406kts
02-Feb-19 13:41 40.086211 -114.584854 181 30841ft 406kts
02-Feb-19 13:42 39.972726 -114.579857 181 30823ft 407kts
02-Feb-19 13:43 39.858758 -114.574840 181 30832ft 408kts
02-Feb-19 13:44 39.745530 -114.569838 181 30830ft 406kts
02-Feb-19 13:45 39.632679 -114.564849 181 30831ft 405kts
02-Feb-19 13:46 39.519389 -114.559838 182 30828ft 405kts
02-Feb-19 13:47 39.406643 -114.554858 182 30827ft 405kts
02-Feb-19 13:48 39.294208 -114.540959 167 30830ft 415kts
02-Feb-19 13:49 39.191649 -114.466178 154 30826ft 427kts
02-Feb-19 13:50 39.089157 -114.387146 155 30827ft 428kts
02-Feb-19 13:51 38.987342 -114.309186 156 30819ft 428kts
02-Feb-19 13:52 38.884225 -114.230214 156 30826ft 429kts
02-Feb-19 13:53 38.781205 -114.151251 156 30828ft 431kts
02-Feb-19 13:54 38.677922 -114.072072 156 30826ft 432kts
02-Feb-19 13:55 38.574319 -113.992602 155 30878ft 434kts
02-Feb-19 13:56 38.469451 -113.912098 155 30881ft 437kts
02-Feb-19 13:57 38.365116 -113.831965 155 30881ft 436kts
02-Feb-19 13:58 38.260894 -113.751883 155 30881ft 437kts
02-Feb-19 13:59 38.156665 -113.671747 155 30881ft 437kts
02-Feb-19 14:00 38.052610 -113.591700 155 30880ft 437kts
02-Feb-19 14:01 37.948036 -113.512480 162 30896ft 433kts
02-Feb-19 14:02 37.852383 -113.499784 187 30923ft 411kts
02-Feb-19 14:03 37.754288 -113.503098 186 30915ft 412kts
02-Feb-19 14:04 37.639485 -113.505276 186 30914ft 413kts
02-Feb-19 14:05 37.533512 -113.516483 201 30789ft 401kts
02-Feb-19 14:06 37.436561 -113.574195 208 29223ft 375kts
02-Feb-19 14:07 37.349540 -113.626109 208 28291ft 373kts
02-Feb-19 14:08 37.254476 -113.682410 208 27335ft 380kts
02-Feb-19 14:09 37.158736 -113.739094 208 26357ft 381kts
02-Feb-19 14:10 37.063074 -113.795736 208 24971ft 371kts
02-Feb-19 14:11 36.973073 -113.849043 208 23252ft 347kts
02-Feb-19 14:12 36.891352 -113.897487 208 21666ft 336kts
02-Feb-19 14:13 36.807673 -113.947093 208 20076ft 331kts
02-Feb-19 14:14 36.725339 -113.995906 208 18466ft 324kts
02-Feb-19 14:15 36.645293 -114.043388 208 17059ft 314kts
02-Feb-19 14:16 36.569454 -114.095145 226 15651ft 308kts
02-Feb-19 14:17 36.526246 -114.179785 237 14353ft 305kts
02-Feb-19 14:18 36.485193 -114.260976 236 13017ft 292kts
02-Feb-19 14:19 36.442648 -114.344122 236 11561ft 278kts
02-Feb-19 14:20 36.403456 -114.420648 236 11675ft 253kts
02-Feb-19 14:21 36.387559 -114.507102 260 11419ft 269kts
02-Feb-19 14:22 36.379264 -114.600418 259 10121ft 273kts
02-Feb-19 14:23 36.370387 -114.692462 258 8904ft 277kts
02-Feb-19 14:24 36.361220 -114.786763 259 7995ft 273kts
02-Feb-19 14:25 36.331976 -114.870186 236 7186ft 261kts
02-Feb-19 14:26 36.296947 -114.949315 237 6397ft 261kts
02-Feb-19 14:27 36.257586 -115.023168 211 5556ft 249kts
02-Feb-19 14:28 36.204229 -115.070731 218 5432ft 198kts
02-Feb-19 14:29 36.161873 -115.117304 209 4222ft 203kts
02-Feb-19 14:30 36.118011 -115.142605 201 2815ft 153kts
02-Feb-19 14:31 36.083333 -115.162174 204 2120ft 98kts
02-Feb-19 14:32 36.078018 -115.163668 86 2120ft 0kts
02-Feb-19 14:33 36.078018 -115.163668 86 2120ft 0kts
02-Feb-19 14:34 36.078034 -115.161027 89 2120ft 29kts
02-Feb-19 14:35 36.078078 -115.155124 87 2120ft 13kts

Navigation Log

Ident Type
Flight plan parsing failed, navigation log unavailable